ADDS METAR Data INFO
IDs: Format: Raw Decoded Include TAF

Data at: 0932 UTC 25 Jun 2018

KLGB 250853Z 16003KT 10SM OVC017 18/14 A2996 RMK AO2 SLP144 T01780139 52006 $
KLGB 250753Z 16006KT 10SM OVC018 18/14 A2995 RMK AO2 SLP142 T01780139 402170172 $
KLGB 250700Z 16005KT 10SM OVC017 18/14 A2995 RMK AO2 T01780144 $
KLGB 250653Z 15005KT 10SM CLR 18/14 A2995 RMK AO2 SLP140 T01780144 $
KLGB 250553Z 00000KT 10SM CLR 18/14 A2994 RMK AO2 SLP138 T01780139 10217 20178 51010 $
KLGB 250453Z 16003KT 10SM CLR 18/14 A2994 RMK AO2 SLP138 T01780139 $
KLGB 250353Z 19005KT 10SM CLR 18/14 A2993 RMK AO2 SLP133 T01830139 $
KLGB 250253Z 17006KT 10SM CLR 19/14 A2991 RMK AO2 SLP129 T01890139 55005 $
KLGB 250153Z 18008KT 10SM CLR 19/14 A2990 RMK AO2 SLP126 T01940139 $
KLGB 250053Z 20007KT 10SM CLR 20/13 A2991 RMK AO2 SLP126 T02000133 $
KLGB 242353Z 18006KT 10SM CLR 21/13 A2993 RMK AO2 SLP134 T02060133 10217 20194 58010 $
KLGB 242253Z 18009KT 10SM CLR 21/13 A2994 RMK AO2 SLP138 T02110133 $
KLGB 242153Z 18007KT 10SM CLR 21/14 A2995 RMK AO2 SLP140 T02110139 $
KLGB 242053Z 19008KT 10SM FEW022 21/14 A2996 RMK AO2 SLP144 T02110139 56000 $
KLGB 241953Z COR 22011KT 10SM FEW023 21/14 A2996 RMK AO2 SLP144 T02110139 $
KLGB 241853Z 20006KT 10SM BKN025 22/14 A2996 RMK AO2 SLP143 T02170139 $
KLGB 241753Z 16005KT 10SM OVC023 19/13 A2996 RMK AO2 SLP144 T01940133 10194 20172 51012 $
KLGB 241653Z 16006KT 10SM OVC019 19/13 A2995 RMK AO2 SLP141 T01890133 $
KLGB 241553Z 17004KT 10SM OVC018 18/13 A2994 RMK AO2 SLP138 T01830133 $
KLGB 241453Z 15007KT 10SM OVC016 18/13 A2992 RMK AO2 SLP133 T01780133 53016 $
KLGB 241353Z 16005KT 10SM OVC016 17/13 A2991 RMK AO2 SLP126 T01720133 $
KLGB 241314Z 17005KT 10SM OVC015 17/14 A2990 RMK AO2 T01720139 $
KLGB 241253Z AUTO VRB06KT 10SM OVC014 17/14 A2989 RMK AO2 SLP122 T01720139 $
KLGB 241153Z AUTO 16005KT 10SM OVC013 17/14 A2988 RMK AO2 SLP117 T01720139 10178 20172 53003 $
KLGB 241053Z AUTO 15007KT 10SM OVC013 18/14 A2987 RMK AO2 SLP113 T01780144 $
KLGB 240953Z AUTO 14005KT 10SM OVC014 18/14 A2987 RMK AO2 SLP113 T01780139 $
KLGB 240908Z AUTO 13006KT 10SM OVC014 18/14 A2987 RMK AO2 T01780139 $
KLGB 240853Z AUTO 15006KT 10SM OVC015 18/14 A2987 RMK AO2 SLP114 T01780139 55002 $
KLGB 240826Z AUTO 14007KT 10SM OVC015 18/14 A2987 RMK AO2 T01780139 $
KLGB 240753Z AUTO 15008KT 10SM OVC014 18/14 A2987 RMK AO2 SLP113 T01780139 402060156 $
KLGB 240653Z AUTO 15006KT 10SM OVC015 18/14 A2987 RMK AO2 SLP115 T01780139 $
KLGB 240553Z AUTO 15007KT 10SM OVC017 18/14 A2988 RMK AO2 SLP116 T01780139 10189 20156 51011 $
KLGB 240453Z 16004KT 10SM OVC017 17/14 A2987 RMK AO2 SLP115 T01720139 $
KLGB 240353Z 17006KT 10SM OVC017 16/14 A2985 RMK AO2 SLP109 T01610139 $
KLGB 240253Z 17006KT 10SM OVC018 16/13 A2984 RMK AO2 SLP105 T01560133 55004 $
KLGB 240153Z 17006KT 10SM OVC018 18/13 A2984 RMK AO2 SLP104 T01830133 $
KLGB 240053Z 16009KT 10SM OVC018 19/13 A2984 RMK AO2 SLP105 T01890133 $
KLGB 232353Z 19009KT 10SM OVC019 17/14 A2986 RMK AO2 SLP110 T01670139 10206 20167 58009 $
KLGB 232253Z 16008KT 10SM OVC020 17/14 A2987 RMK AO2 SLP114 T01720139 $
KLGB 232153Z 18010G16KT 10SM SCT016 OVC022 19/14 A2988 RMK AO2 SLP117 T01940144 $